createdAt,value
2017-07-20T00:02:18.817Z,23.00
2017-07-20T00:07:20.541Z,27.43
2017-07-20T00:12:22.249Z,27.77
2017-07-20T00:17:23.975Z,35.77
2017-07-20T00:22:25.705Z,38.90
2017-07-20T00:27:28.157Z,33.67
2017-07-20T00:32:29.878Z,45.57
2017-07-20T00:37:31.662Z,36.80
2017-07-20T00:42:33.431Z,47.27
2017-07-20T00:47:35.162Z,32.63
2017-07-20T00:52:36.893Z,46.70
2017-07-20T00:57:38.683Z,43.73
2017-07-20T01:02:40.439Z,35.13
2017-07-20T01:07:42.230Z,53.43
2017-07-20T01:12:43.945Z,50.23
2017-07-20T01:17:46.418Z,43.67
2017-07-20T01:22:48.134Z,39.67
2017-07-20T01:27:50.598Z,35.73
2017-07-20T01:32:53.096Z,38.10
2017-07-20T01:37:54.896Z,38.90
2017-07-20T01:42:56.618Z,42.27
2017-07-20T01:47:58.362Z,35.43
2017-07-20T01:53:00.157Z,38.00
2017-07-20T01:58:01.997Z,42.77
2017-07-20T02:03:03.774Z,41.97
2017-07-20T02:08:05.541Z,34.83
2017-07-20T02:13:07.280Z,45.73
2017-07-20T02:18:09.064Z,41.37
2017-07-20T02:23:10.803Z,43.93
2017-07-20T02:28:12.615Z,52.57
2017-07-20T02:33:14.367Z,38.13
2017-07-20T02:38:16.724Z,44.70
2017-07-20T02:43:18.457Z,39.53
2017-07-20T02:48:20.230Z,46.13
2017-07-20T02:53:21.954Z,31.30
2017-07-20T02:58:23.708Z,50.03
2017-07-20T03:03:26.424Z,49.33
2017-07-20T03:08:28.187Z,49.23
2017-07-20T03:13:29.905Z,36.57
2017-07-20T03:18:32.318Z,43.43
2017-07-20T03:23:34.142Z,45.00
2017-07-20T03:28:35.871Z,39.80
2017-07-20T03:33:39.227Z,58.57
2017-07-20T03:38:41.011Z,46.50
2017-07-20T03:43:47.464Z,46.73
2017-07-20T03:48:51.884Z,64.57
2017-07-20T03:53:55.017Z,43.33
2017-07-20T03:58:56.723Z,39.27
2017-07-20T04:04:01.673Z,33.70
2017-07-20T04:09:08.948Z,41.87
2017-07-20T04:14:10.723Z,60.77
2017-07-20T04:19:18.180Z,41.27
2017-07-20T04:24:20.049Z,35.23
2017-07-20T04:29:22.440Z,36.23
2017-07-20T04:34:24.158Z,32.40
2017-07-20T04:39:25.916Z,39.03
2017-07-20T04:44:27.663Z,39.67
2017-07-20T04:49:29.426Z,45.83
2017-07-20T04:54:31.188Z,37.13
2017-07-20T04:59:33.707Z,37.73
2017-07-20T05:04:35.452Z,42.93
2017-07-20T05:09:37.188Z,46.90
2017-07-20T05:14:38.918Z,40.83
2017-07-20T05:19:40.693Z,31.00
2017-07-20T05:24:42.445Z,46.57
2017-07-20T05:29:44.193Z,36.53
2017-07-20T05:34:49.510Z,41.43
2017-07-20T05:39:51.403Z,42.57
2017-07-20T05:44:53.987Z,27.67
2017-07-20T05:49:56.167Z,34.80
2017-07-20T05:54:58.078Z,37.30
2017-07-20T06:00:01.499Z,23.20
2017-07-20T06:05:09.501Z,36.60
2017-07-20T06:10:11.968Z,37.43
2017-07-20T06:15:13.966Z,34.17
2017-07-20T06:20:15.926Z,29.07
2017-07-20T06:25:17.793Z,24.80
2017-07-20T06:30:19.554Z,23.00
2017-07-20T06:35:21.336Z,20.90
2017-07-20T06:40:23.212Z,29.07
2017-07-20T06:45:25.118Z,30.87
2017-07-20T06:50:26.941Z,46.40
2017-07-20T06:55:29.464Z,25.03
2017-07-20T07:00:31.225Z,22.17
2017-07-20T07:05:32.968Z,19.30
2017-07-20T07:10:34.769Z,25.83
2017-07-20T07:15:36.512Z,26.50
2017-07-20T07:20:38.280Z,20.70
2017-07-20T07:25:40.108Z,20.47
2017-07-20T07:30:42.280Z,20.70
2017-07-20T07:35:44.911Z,24.63
2017-07-20T07:40:46.702Z,37.43
2017-07-20T07:45:48.436Z,20.17
2017-07-20T07:50:50.261Z,24.20
2017-07-20T07:55:52.063Z,19.30
2017-07-20T08:00:54.010Z,24.97
2017-07-20T08:05:55.798Z,26.47
2017-07-20T08:10:57.567Z,21.67
2017-07-20T08:15:59.321Z,20.97
2017-07-20T08:21:01.810Z,21.97
2017-07-20T08:26:03.610Z,31.57
2017-07-20T08:31:05.410Z,19.43
2017-07-20T08:36:07.190Z,14.57
2017-07-20T08:41:08.970Z,26.63
2017-07-20T08:46:11.479Z,17.57
2017-07-20T08:51:13.261Z,21.37
2017-07-20T08:56:15.014Z,14.60
2017-07-20T09:01:16.790Z,12.67
2017-07-20T09:06:18.564Z,12.63
2017-07-20T09:11:20.346Z,17.33
2017-07-20T09:16:22.097Z,12.13
2017-07-20T09:21:23.890Z,16.70
2017-07-20T09:26:25.755Z,16.03
2017-07-20T09:31:28.290Z,15.87
2017-07-20T09:36:30.097Z,18.80
2017-07-20T09:41:31.944Z,16.60
2017-07-20T09:46:33.982Z,11.33
2017-07-20T09:51:36.239Z,13.90
2017-07-20T09:56:37.999Z,12.87
2017-07-20T10:01:39.767Z,12.03
2017-07-20T10:06:41.611Z,13.90
2017-07-20T10:11:43.397Z,17.43
2017-07-20T10:16:45.252Z,7.47
2017-07-20T10:21:47.176Z,10.83
2017-07-20T10:26:50.113Z,18.60
2017-07-20T10:31:53.260Z,8.00
2017-07-20T10:36:55.280Z,11.87
2017-07-20T10:41:57.227Z,17.97
2017-07-20T10:46:59.416Z,12.53
2017-07-20T10:52:01.267Z,10.20
2017-07-20T10:57:03.093Z,21.53
2017-07-20T11:02:05.002Z,7.47
2017-07-20T11:07:06.756Z,15.77
2017-07-20T11:12:09.689Z,14.40
2017-07-20T11:17:13.511Z,9.10
2017-07-20T11:22:20.307Z,6.40
2017-07-20T11:27:27.206Z,11.13
2017-07-20T11:32:29.285Z,10.03
2017-07-20T11:37:32.116Z,20.67
2017-07-20T11:42:37.333Z,11.50
2017-07-20T11:47:43.146Z,12.57
2017-07-20T11:52:44.982Z,11.10
2017-07-20T11:57:46.846Z,11.20
2017-07-20T12:02:49.457Z,13.10
2017-07-20T12:07:51.251Z,11.40
2017-07-20T12:12:53.784Z,13.03
2017-07-20T12:17:55.579Z,16.20
2017-07-20T12:22:57.514Z,12.33
2017-07-20T12:28:04.678Z,11.83
2017-07-20T12:33:11.140Z,11.57
2017-07-20T12:38:13.187Z,17.03
2017-07-20T12:43:14.986Z,14.37
2017-07-20T12:48:16.783Z,10.73
2017-07-20T12:53:18.576Z,7.13
2017-07-20T12:58:20.427Z,9.93
2017-07-20T13:03:22.304Z,11.63
2017-07-20T13:08:24.320Z,15.17
2017-07-20T13:13:26.099Z,21.27
2017-07-20T13:18:28.377Z,7.77
2017-07-20T13:23:30.302Z,17.08
2017-07-20T13:28:33.786Z,10.53
2017-07-20T13:33:50.787Z,14.43
2017-07-20T13:38:53.019Z,8.10
2017-07-20T13:43:54.840Z,9.97
2017-07-20T13:48:57.621Z,15.63
2017-07-20T13:54:00.896Z,11.10
2017-07-20T13:59:03.147Z,14.23
2017-07-20T14:04:06.928Z,9.80
2017-07-20T14:09:09.204Z,13.83
2017-07-20T14:14:11.746Z,12.23
2017-07-20T14:19:13.643Z,16.90
2017-07-20T14:24:16.811Z,13.20
2017-07-20T14:29:19.844Z,12.80
2017-07-20T14:34:21.801Z,11.63
2017-07-20T14:39:23.631Z,13.03
2017-07-20T14:44:25.835Z,8.40
2017-07-20T14:49:29.495Z,7.67
2017-07-20T14:54:31.724Z,9.57
2017-07-20T14:59:36.505Z,15.13
2017-07-20T15:04:39.838Z,12.20
2017-07-20T15:09:41.609Z,9.10
2017-07-20T15:14:44.016Z,15.53
2017-07-20T15:19:53.169Z,7.60
2017-07-20T15:24:54.947Z,8.20
2017-07-20T15:30:00.550Z,11.47
2017-07-20T15:35:02.654Z,13.07
2017-07-20T15:40:04.611Z,8.87
2017-07-20T15:45:06.435Z,12.63
2017-07-20T15:50:09.890Z,14.83
2017-07-20T15:55:11.760Z,17.10
2017-07-20T16:00:13.658Z,6.67
2017-07-20T16:05:15.478Z,8.80
2017-07-20T16:10:17.251Z,9.30
2017-07-20T16:15:18.982Z,13.13
2017-07-20T16:20:21.941Z,16.40
2017-07-20T16:25:38.271Z,10.67
2017-07-20T16:30:40.051Z,7.50
2017-07-20T16:35:41.899Z,14.23
2017-07-20T16:40:43.730Z,9.00
2017-07-20T16:45:45.497Z,5.70
2017-07-20T16:50:47.292Z,8.73
2017-07-20T16:55:49.031Z,9.60
2017-07-20T17:00:50.819Z,10.23
2017-07-20T17:05:52.689Z,11.43
2017-07-20T17:10:54.435Z,10.93
2017-07-20T17:15:56.174Z,12.07
2017-07-20T17:20:57.951Z,6.93
2017-07-20T17:26:02.057Z,8.63
2017-07-20T17:31:05.698Z,7.67
2017-07-20T17:36:09.580Z,12.60
2017-07-20T17:41:14.401Z,7.40
2017-07-20T17:46:16.137Z,4.50
2017-07-20T17:51:17.867Z,14.93
2017-07-20T17:56:19.717Z,4.23
2017-07-20T18:01:26.095Z,7.90
2017-07-20T18:06:28.706Z,10.00
2017-07-20T18:11:35.087Z,10.93
2017-07-20T18:16:37.239Z,7.93
2017-07-20T18:21:39.299Z,6.30
2017-07-20T18:26:41.934Z,6.03
2017-07-20T18:31:44.061Z,14.80
2017-07-20T18:36:47.628Z,11.20
2017-07-20T18:41:49.374Z,7.20
2017-07-20T18:46:51.263Z,21.27
2017-07-20T18:51:54.887Z,9.63
2017-07-20T18:56:56.636Z,7.00
2017-07-20T19:01:58.349Z,6.90
2017-07-20T19:07:01.089Z,10.93
2017-07-20T19:12:06.569Z,8.23
2017-07-20T19:17:12.100Z,8.53
2017-07-20T19:22:13.938Z,11.23
2017-07-20T19:27:15.694Z,9.23
2017-07-20T19:32:21.828Z,12.53
2017-07-20T19:37:24.714Z,22.60
2017-07-20T19:42:27.649Z,25.70
2017-07-20T19:47:29.471Z,21.33
2017-07-20T19:52:31.832Z,16.70
2017-07-20T19:57:33.622Z,12.40
2017-07-20T20:02:35.441Z,15.60
2017-07-20T20:07:37.205Z,14.23
2017-07-20T20:12:39.904Z,23.40
2017-07-20T20:17:41.703Z,13.47
2017-07-20T20:22:43.436Z,18.10
2017-07-20T20:27:45.314Z,16.00
2017-07-20T20:32:47.864Z,13.60
2017-07-20T20:37:49.656Z,15.57
2017-07-20T20:42:51.518Z,14.53
2017-07-20T20:47:53.403Z,15.40
2017-07-20T20:52:55.190Z,6.53
2017-07-20T20:57:56.979Z,8.57
2017-07-20T21:02:58.738Z,9.70
2017-07-20T21:08:00.506Z,12.60
2017-07-20T21:13:03.095Z,11.70
2017-07-20T21:18:04.855Z,11.17
2017-07-20T21:23:06.668Z,14.23
2017-07-20T21:28:08.415Z,7.50
2017-07-20T21:33:10.136Z,6.90
2017-07-20T21:38:12.610Z,9.20
2017-07-20T21:43:14.381Z,3.00
2017-07-20T21:48:17.868Z,5.00
2017-07-20T21:53:19.702Z,4.47
2017-07-20T21:58:21.458Z,4.70
2017-07-20T22:03:23.241Z,6.40
2017-07-20T22:08:25.014Z,3.23
2017-07-20T22:13:26.795Z,6.67
2017-07-20T22:18:28.548Z,13.63
2017-07-20T22:23:30.305Z,5.90
2017-07-20T22:28:32.074Z,3.37
2017-07-20T22:33:34.696Z,5.20
2017-07-20T22:38:36.472Z,3.50
2017-07-20T22:43:38.959Z,9.17
2017-07-20T22:48:40.700Z,5.37
2017-07-20T22:53:42.473Z,7.13
2017-07-20T22:58:44.238Z,10.23
2017-07-20T23:03:52.110Z,7.20
2017-07-20T23:08:53.883Z,16.30
2017-07-20T23:13:55.678Z,7.07
2017-07-20T23:18:57.499Z,7.67
2017-07-20T23:23:59.259Z,9.00
2017-07-20T23:29:01.011Z,10.33
2017-07-20T23:34:02.741Z,10.97
2017-07-20T23:39:04.559Z,12.67
2017-07-20T23:44:06.296Z,7.30
2017-07-20T23:49:08.027Z,11.30
2017-07-20T23:54:10.522Z,4.77
2017-07-20T23:59:12.501Z,22.37
